Terminal Aerodrome Forecast
Issued by NWS Nashville, TN

Home | Current Version | Previous Version | Text Only | Print | Product List | Glossary On
Versions: 1 2 3 4 5 6 7 8 9 10 11 12 13 14 15 16 17
502
FTUS44 KOHX 132147 AAA
TAFBNA
TAF AMD
KBNA 132147Z 1322/1418 36008KT P6SM SCT250
     FM140100 05005KT P6SM OVC100
     FM141400 11010KT P6SM OVC050
     FM141700 16010G18KT P6SM -SHSN OVC030=

USA.gov is the U.S. government's official web portal to all federal, state and local government web resources and services.